sensor_id;sensor_type;location;lat;lon;timestamp;temperature;humidity
66871;DHT22;53780;44.998;9.926;2023-04-03T00:01:47;11.62;65.37
66871;DHT22;53780;44.998;9.926;2023-04-03T00:04:51;11.52;65.68
66871;DHT22;53780;44.998;9.926;2023-04-03T00:07:55;11.41;65.18
66871;DHT22;53780;44.998;9.926;2023-04-03T00:10:59;11.30;66.17
66871;DHT22;53780;44.998;9.926;2023-04-03T00:14:03;11.30;65.62
66871;DHT22;53780;44.998;9.926;2023-04-03T00:17:06;11.31;64.93
66871;DHT22;53780;44.998;9.926;2023-04-03T00:20:10;11.36;64.54
66871;DHT22;53780;44.998;9.926;2023-04-03T00:23:13;11.36;64.03
66871;DHT22;53780;44.998;9.926;2023-04-03T00:26:18;11.38;63.77
66871;DHT22;53780;44.998;9.926;2023-04-03T00:29:23;11.36;63.69
66871;DHT22;53780;44.998;9.926;2023-04-03T00:32:27;11.34;63.61
66871;DHT22;53780;44.998;9.926;2023-04-03T00:35:31;11.35;63.75
66871;DHT22;53780;44.998;9.926;2023-04-03T00:38:35;11.35;63.65
66871;DHT22;53780;44.998;9.926;2023-04-03T00:41:40;11.34;63.48
66871;DHT22;53780;44.998;9.926;2023-04-03T00:47:48;11.38;63.11
66871;DHT22;53780;44.998;9.926;2023-04-03T00:50:52;11.38;63.13
66871;DHT22;53780;44.998;9.926;2023-04-03T00:53:59;11.36;62.66
66871;DHT22;53780;44.998;9.926;2023-04-03T00:57:05;11.24;62.49
66871;DHT22;53780;44.998;9.926;2023-04-03T01:00:13;11.13;62.74
66871;DHT22;53780;44.998;9.926;2023-04-03T01:03:18;11.13;63.24
66871;DHT22;53780;44.998;9.926;2023-04-03T01:06:28;11.00;63.24
66871;DHT22;53780;44.998;9.926;2023-04-03T01:09:40;10.86;63.78
66871;DHT22;53780;44.998;9.926;2023-04-03T01:12:47;10.79;64.11
66871;DHT22;53780;44.998;9.926;2023-04-03T01:15:52;10.73;64.17
66871;DHT22;53780;44.998;9.926;2023-04-03T01:18:56;10.62;64.05
66871;DHT22;53780;44.998;9.926;2023-04-03T01:22:15;10.63;64.48
66871;DHT22;53780;44.998;9.926;2023-04-03T01:25:22;10.69;64.99
66871;DHT22;53780;44.998;9.926;2023-04-03T01:28:30;10.66;64.52
66871;DHT22;53780;44.998;9.926;2023-04-03T01:34:39;10.52;64.81
66871;DHT22;53780;44.998;9.926;2023-04-03T01:37:43;10.53;64.54
66871;DHT22;53780;44.998;9.926;2023-04-03T01:40:47;10.60;64.46
66871;DHT22;53780;44.998;9.926;2023-04-03T01:43:51;10.56;63.90
66871;DHT22;53780;44.998;9.926;2023-04-03T01:46:55;10.49;64.29
66871;DHT22;53780;44.998;9.926;2023-04-03T01:50:01;10.45;64.21
66871;DHT22;53780;44.998;9.926;2023-04-03T01:53:06;10.39;64.44
66871;DHT22;53780;44.998;9.926;2023-04-03T01:56:10;10.41;64.40
66871;DHT22;53780;44.998;9.926;2023-04-03T01:59:13;10.46;64.14
66871;DHT22;53780;44.998;9.926;2023-04-03T02:02:21;10.50;63.70
66871;DHT22;53780;44.998;9.926;2023-04-03T02:05:24;10.49;63.64
66871;DHT22;53780;44.998;9.926;2023-04-03T02:08:29;10.42;63.64
66871;DHT22;53780;44.998;9.926;2023-04-03T02:11:33;10.35;63.59
66871;DHT22;53780;44.998;9.926;2023-04-03T02:14:37;10.29;63.66
66871;DHT22;53780;44.998;9.926;2023-04-03T02:17:40;10.25;63.71
66871;DHT22;53780;44.998;9.926;2023-04-03T02:20:45;10.25;63.71
66871;DHT22;53780;44.998;9.926;2023-04-03T02:23:50;10.24;63.91
66871;DHT22;53780;44.998;9.926;2023-04-03T02:26:55;10.21;63.89
66871;DHT22;53780;44.998;9.926;2023-04-03T02:29:59;10.22;63.77
66871;DHT22;53780;44.998;9.926;2023-04-03T02:33:03;10.28;63.77
66871;DHT22;53780;44.998;9.926;2023-04-03T02:36:08;10.35;63.69
66871;DHT22;53780;44.998;9.926;2023-04-03T02:39:15;10.29;63.41
66871;DHT22;53780;44.998;9.926;2023-04-03T02:42:19;10.27;63.54
66871;DHT22;53780;44.998;9.926;2023-04-03T02:45:23;10.18;63.31
66871;DHT22;53780;44.998;9.926;2023-04-03T02:48:27;10.12;63.57
66871;DHT22;53780;44.998;9.926;2023-04-03T02:51:31;10.11;63.63
66871;DHT22;53780;44.998;9.926;2023-04-03T02:54:35;10.07;63.92
66871;DHT22;53780;44.998;9.926;2023-04-03T02:57:42;10.05;63.86
66871;DHT22;53780;44.998;9.926;2023-04-03T03:00:47;9.98;63.60
66871;DHT22;53780;44.998;9.926;2023-04-03T03:03:50;9.95;63.76
66871;DHT22;53780;44.998;9.926;2023-04-03T03:06:54;9.93;63.79
66871;DHT22;53780;44.998;9.926;2023-04-03T03:09:58;9.87;63.96
66871;DHT22;53780;44.998;9.926;2023-04-03T03:13:04;9.89;64.04
66871;DHT22;53780;44.998;9.926;2023-04-03T03:16:07;9.79;64.05
66871;DHT22;53780;44.998;9.926;2023-04-03T03:19:12;9.77;64.38
66871;DHT22;53780;44.998;9.926;2023-04-03T03:22:16;9.76;64.29
66871;DHT22;53780;44.998;9.926;2023-04-03T03:25:20;9.73;64.57
66871;DHT22;53780;44.998;9.926;2023-04-03T03:28:24;9.74;64.63
66871;DHT22;53780;44.998;9.926;2023-04-03T03:31:28;9.79;64.56
66871;DHT22;53780;44.998;9.926;2023-04-03T03:34:32;9.72;64.61
66871;DHT22;53780;44.998;9.926;2023-04-03T03:37:36;9.69;64.48
66871;DHT22;53780;44.998;9.926;2023-04-03T03:40:40;9.56;64.86
66871;DHT22;53780;44.998;9.926;2023-04-03T03:43:45;9.49;64.92
66871;DHT22;53780;44.998;9.926;2023-04-03T03:46:50;9.46;65.09
66871;DHT22;53780;44.998;9.926;2023-04-03T03:49:54;9.38;65.19
66871;DHT22;53780;44.998;9.926;2023-04-03T03:52:58;9.31;65.71
66871;DHT22;53780;44.998;9.926;2023-04-03T03:56:02;9.28;66.05
66871;DHT22;53780;44.998;9.926;2023-04-03T03:59:08;9.24;66.03
66871;DHT22;53780;44.998;9.926;2023-04-03T04:02:12;9.21;65.94
66871;DHT22;53780;44.998;9.926;2023-04-03T04:05:16;9.22;65.90
66871;DHT22;53780;44.998;9.926;2023-04-03T04:08:20;9.24;66.01
66871;DHT22;53780;44.998;9.926;2023-04-03T04:11:24;9.18;66.22
66871;DHT22;53780;44.998;9.926;2023-04-03T04:14:30;9.15;65.92
66871;DHT22;53780;44.998;9.926;2023-04-03T04:17:36;9.11;65.97
66871;DHT22;53780;44.998;9.926;2023-04-03T04:20:45;9.10;65.93
66871;DHT22;53780;44.998;9.926;2023-04-03T04:23:48;9.03;66.23
66871;DHT22;53780;44.998;9.926;2023-04-03T04:26:53;9.07;66.47
66871;DHT22;53780;44.998;9.926;2023-04-03T04:29:58;8.97;66.59
66871;DHT22;53780;44.998;9.926;2023-04-03T04:33:02;9.01;66.64
66871;DHT22;53780;44.998;9.926;2023-04-03T04:36:06;9.01;66.57
66871;DHT22;53780;44.998;9.926;2023-04-03T04:39:11;9.07;65.26
66871;DHT22;53780;44.998;9.926;2023-04-03T04:42:15;9.10;64.89
66871;DHT22;53780;44.998;9.926;2023-04-03T04:45:22;9.03;65.54
66871;DHT22;53780;44.998;9.926;2023-04-03T04:48:26;8.92;66.02
66871;DHT22;53780;44.998;9.926;2023-04-03T04:51:30;8.88;65.42
66871;DHT22;53780;44.998;9.926;2023-04-03T04:54:35;8.76;64.79
66871;DHT22;53780;44.998;9.926;2023-04-03T04:57:39;8.60;66.00
66871;DHT22;53780;44.998;9.926;2023-04-03T05:00:43;8.49;66.65
66871;DHT22;53780;44.998;9.926;2023-04-03T05:03:48;8.52;67.21
66871;DHT22;53780;44.998;9.926;2023-04-03T05:06:52;8.46;67.61
66871;DHT22;53780;44.998;9.926;2023-04-03T05:10:02;8.46;68.02
66871;DHT22;53780;44.998;9.926;2023-04-03T05:13:06;8.48;67.68
66871;DHT22;53780;44.998;9.926;2023-04-03T05:16:11;8.50;67.81
66871;DHT22;53780;44.998;9.926;2023-04-03T05:19:15;8.46;66.79
66871;DHT22;53780;44.998;9.926;2023-04-03T05:22:19;8.50;66.91
66871;DHT22;53780;44.998;9.926;2023-04-03T05:25:23;8.52;67.08
66871;DHT22;53780;44.998;9.926;2023-04-03T05:28:28;8.56;67.32
66871;DHT22;53780;44.998;9.926;2023-04-03T05:31:32;8.59;67.71
66871;DHT22;53780;44.998;9.926;2023-04-03T05:34:36;8.61;67.62
66871;DHT22;53780;44.998;9.926;2023-04-03T05:37:40;8.64;66.66
66871;DHT22;53780;44.998;9.926;2023-04-03T05:40:45;8.64;67.26
66871;DHT22;53780;44.998;9.926;2023-04-03T05:43:49;8.60;67.56
66871;DHT22;53780;44.998;9.926;2023-04-03T05:46:54;8.60;67.72
66871;DHT22;53780;44.998;9.926;2023-04-03T05:49:58;8.67;68.07
66871;DHT22;53780;44.998;9.926;2023-04-03T05:53:03;8.56;69.29
66871;DHT22;53780;44.998;9.926;2023-04-03T05:56:09;8.73;68.19
66871;DHT22;53780;44.998;9.926;2023-04-03T05:59:17;8.85;67.68
66871;DHT22;53780;44.998;9.926;2023-04-03T06:02:23;8.91;68.31
66871;DHT22;53780;44.998;9.926;2023-04-03T06:05:28;9.17;67.70
66871;DHT22;53780;44.998;9.926;2023-04-03T06:08:32;9.39;67.00
66871;DHT22;53780;44.998;9.926;2023-04-03T06:11:37;10.12;65.53
66871;DHT22;53780;44.998;9.926;2023-04-03T06:14:41;15.74;51.01
66871;DHT22;53780;44.998;9.926;2023-04-03T06:17:44;20.89;39.33
66871;DHT22;53780;44.998;9.926;2023-04-03T06:20:49;24.95;32.55
66871;DHT22;53780;44.998;9.926;2023-04-03T06:23:53;27.00;29.50
66871;DHT22;53780;44.998;9.926;2023-04-03T06:26:57;28.28;28.19
66871;DHT22;53780;44.998;9.926;2023-04-03T06:30:02;28.56;27.88
66871;DHT22;53780;44.998;9.926;2023-04-03T06:33:06;28.92;27.13
66871;DHT22;53780;44.998;9.926;2023-04-03T06:36:10;29.44;26.22
66871;DHT22;53780;44.998;9.926;2023-04-03T06:39:17;30.08;25.77
66871;DHT22;53780;44.998;9.926;2023-04-03T06:42:22;30.98;25.25
66871;DHT22;53780;44.998;9.926;2023-04-03T06:45:35;31.26;25.05
66871;DHT22;53780;44.998;9.926;2023-04-03T06:48:42;32.05;24.49
66871;DHT22;53780;44.998;9.926;2023-04-03T06:51:46;33.70;22.76
66871;DHT22;53780;44.998;9.926;2023-04-03T06:54:50;31.87;24.89
66871;DHT22;53780;44.998;9.926;2023-04-03T06:58:00;34.11;22.98
66871;DHT22;53780;44.998;9.926;2023-04-03T07:01:04;34.45;22.66
66871;DHT22;53780;44.998;9.926;2023-04-03T07:04:08;35.54;22.07
66871;DHT22;53780;44.998;9.926;2023-04-03T07:07:12;36.30;21.41
66871;DHT22;53780;44.998;9.926;2023-04-03T07:10:16;33.51;23.76
66871;DHT22;53780;44.998;9.926;2023-04-03T07:13:19;35.04;22.42
66871;DHT22;53780;44.998;9.926;2023-04-03T07:16:26;37.40;20.54
66871;DHT22;53780;44.998;9.926;2023-04-03T07:19:32;37.85;20.10
66871;DHT22;53780;44.998;9.926;2023-04-03T07:22:36;37.72;20.32
66871;DHT22;53780;44.998;9.926;2023-04-03T07:25:44;37.59;20.02
66871;DHT22;53780;44.998;9.926;2023-04-03T07:28:48;36.67;21.03
66871;DHT22;53780;44.998;9.926;2023-04-03T07:31:53;34.54;22.36
66871;DHT22;53780;44.998;9.926;2023-04-03T07:34:58;32.60;24.57
66871;DHT22;53780;44.998;9.926;2023-04-03T07:38:02;30.88;26.47
66871;DHT22;53780;44.998;9.926;2023-04-03T07:41:06;32.56;24.91
66871;DHT22;53780;44.998;9.926;2023-04-03T07:44:10;33.22;24.50
66871;DHT22;53780;44.998;9.926;2023-04-03T07:47:14;34.56;23.39
66871;DHT22;53780;44.998;9.926;2023-04-03T07:50:20;32.31;25.61
66871;DHT22;53780;44.998;9.926;2023-04-03T07:53:24;30.33;28.16
66871;DHT22;53780;44.998;9.926;2023-04-03T07:56:28;31.64;26.79
66871;DHT22;53780;44.998;9.926;2023-04-03T07:59:32;29.81;28.67
66871;DHT22;53780;44.998;9.926;2023-04-03T08:02:36;28.25;30.62
66871;DHT22;53780;44.998;9.926;2023-04-03T08:05:41;29.76;29.02
66871;DHT22;53780;44.998;9.926;2023-04-03T08:08:45;30.00;28.91
66871;DHT22;53780;44.998;9.926;2023-04-03T08:11:49;30.81;27.91
66871;DHT22;53780;44.998;9.926;2023-04-03T08:14:56;30.98;27.80
66871;DHT22;53780;44.998;9.926;2023-04-03T08:18:00;28.32;31.58
66871;DHT22;53780;44.998;9.926;2023-04-03T08:21:08;28.27;31.87
66871;DHT22;53780;44.998;9.926;2023-04-03T08:24:13;30.30;29.10
66871;DHT22;53780;44.998;9.926;2023-04-03T08:27:17;29.86;29.58
66871;DHT22;53780;44.998;9.926;2023-04-03T08:30:21;28.32;31.91
66871;DHT22;53780;44.998;9.926;2023-04-03T08:33:25;29.55;30.22
66871;DHT22;53780;44.998;9.926;2023-04-03T08:36:29;29.26;30.60
66871;DHT22;53780;44.998;9.926;2023-04-03T08:39:33;31.46;28.19
66871;DHT22;53780;44.998;9.926;2023-04-03T08:43:12;26.46;34.40
66871;DHT22;53780;44.998;9.926;2023-04-03T08:46:22;28.56;32.39
66871;DHT22;53780;44.998;9.926;2023-04-03T08:52:47;30.81;29.24
66871;DHT22;53780;44.998;9.926;2023-04-03T08:55:53;33.04;27.00
66871;DHT22;53780;44.998;9.926;2023-04-03T08:59:05;32.64;27.06
66871;DHT22;53780;44.998;9.926;2023-04-03T09:02:30;31.73;28.32
66871;DHT22;53780;44.998;9.926;2023-04-03T09:09:05;33.79;26.58
66871;DHT22;53780;44.998;9.926;2023-04-03T09:12:35;33.77;26.36
66871;DHT22;53780;44.998;9.926;2023-04-03T09:15:43;34.17;26.26
66871;DHT22;53780;44.998;9.926;2023-04-03T09:18:53;35.51;24.71
66871;DHT22;53780;44.998;9.926;2023-04-03T09:22:09;32.73;27.16
66871;DHT22;53780;44.998;9.926;2023-04-03T09:28:22;31.44;28.93
66871;DHT22;53780;44.998;9.926;2023-04-03T09:31:41;31.82;28.47
66871;DHT22;53780;44.998;9.926;2023-04-03T09:34:47;29.34;31.61
66871;DHT22;53780;44.998;9.926;2023-04-03T09:41:18;31.05;30.04
66871;DHT22;53780;44.998;9.926;2023-04-03T09:44:25;31.73;29.12
66871;DHT22;53780;44.998;9.926;2023-04-03T09:47:33;32.48;27.89
66871;DHT22;53780;44.998;9.926;2023-04-03T09:50:38;31.18;28.64
66871;DHT22;53780;44.998;9.926;2023-04-03T09:54:37;30.13;29.66
66871;DHT22;53780;44.998;9.926;2023-04-03T09:57:44;29.78;30.58
66871;DHT22;53780;44.998;9.926;2023-04-03T10:00:58;30.68;29.07
66871;DHT22;53780;44.998;9.926;2023-04-03T10:07:31;30.40;28.52
66871;DHT22;53780;44.998;9.926;2023-04-03T10:10:36;31.15;28.21
66871;DHT22;53780;44.998;9.926;2023-04-03T10:13:55;32.02;26.76
66871;DHT22;53780;44.998;9.926;2023-04-03T10:17:14;30.20;29.92
66871;DHT22;53780;44.998;9.926;2023-04-03T10:23:36;34.71;24.59
66871;DHT22;53780;44.998;9.926;2023-04-03T10:43:10;23.68;38.36
66871;DHT22;53780;44.998;9.926;2023-04-03T10:46:41;22.86;39.98
66871;DHT22;53780;44.998;9.926;2023-04-03T10:53:42;24.25;37.64
66871;DHT22;53780;44.998;9.926;2023-04-03T10:56:56;22.61;39.53
66871;DHT22;53780;44.998;9.926;2023-04-03T11:00:05;23.62;38.03
66871;DHT22;53780;44.998;9.926;2023-04-03T11:03:16;24.04;37.16
66871;DHT22;53780;44.998;9.926;2023-04-03T11:06:51;24.32;36.26
66871;DHT22;53780;44.998;9.926;2023-04-03T11:10:02;23.92;37.35
66871;DHT22;53780;44.998;9.926;2023-04-03T11:16:43;22.44;40.92
66871;DHT22;53780;44.998;9.926;2023-04-03T11:23:23;22.06;41.15
66871;DHT22;53780;44.998;9.926;2023-04-03T11:26:32;21.83;41.17
66871;DHT22;53780;44.998;9.926;2023-04-03T11:29:40;21.89;41.37
66871;DHT22;53780;44.998;9.926;2023-04-03T11:33:21;21.92;41.98
66871;DHT22;53780;44.998;9.926;2023-04-03T11:36:31;22.92;38.56
66871;DHT22;53780;44.998;9.926;2023-04-03T11:39:37;23.24;38.53
66871;DHT22;53780;44.998;9.926;2023-04-03T11:42:43;21.96;40.33
66871;DHT22;53780;44.998;9.926;2023-04-03T11:48:59;21.00;43.72
66871;DHT22;53780;44.998;9.926;2023-04-03T11:52:03;20.14;45.41
66871;DHT22;53780;44.998;9.926;2023-04-03T11:58:36;19.48;48.77
66871;DHT22;53780;44.998;9.926;2023-04-03T12:01:55;18.24;51.53
66871;DHT22;53780;44.998;9.926;2023-04-03T12:05:26;18.59;50.25
66871;DHT22;53780;44.998;9.926;2023-04-03T12:11:37;18.73;48.23
66871;DHT22;53780;44.998;9.926;2023-04-03T12:14:41;18.77;47.94
66871;DHT22;53780;44.998;9.926;2023-04-03T12:17:45;18.66;47.89
66871;DHT22;53780;44.998;9.926;2023-04-03T12:20:57;17.87;49.15
66871;DHT22;53780;44.998;9.926;2023-04-03T12:27:23;18.28;47.10
66871;DHT22;53780;44.998;9.926;2023-04-03T12:30:30;18.22;44.50
66871;DHT22;53780;44.998;9.926;2023-04-03T12:36:55;17.75;44.55
66871;DHT22;53780;44.998;9.926;2023-04-03T12:46:49;17.70;43.98
66871;DHT22;53780;44.998;9.926;2023-04-03T12:49:54;17.87;43.11
66871;DHT22;53780;44.998;9.926;2023-04-03T12:56:29;17.56;43.35
66871;DHT22;53780;44.998;9.926;2023-04-03T12:59:33;17.54;42.24
66871;DHT22;53780;44.998;9.926;2023-04-03T13:02:37;17.45;43.38
66871;DHT22;53780;44.998;9.926;2023-04-03T13:05:44;17.19;43.33
66871;DHT22;53780;44.998;9.926;2023-04-03T13:08:52;17.32;42.45
66871;DHT22;53780;44.998;9.926;2023-04-03T13:12:10;17.49;43.49
66871;DHT22;53780;44.998;9.926;2023-04-03T13:15:19;17.33;43.75
66871;DHT22;53780;44.998;9.926;2023-04-03T13:18:34;17.53;43.17
66871;DHT22;53780;44.998;9.926;2023-04-03T13:21:38;17.62;43.22
66871;DHT22;53780;44.998;9.926;2023-04-03T13:24:44;17.78;43.24
66871;DHT22;53780;44.998;9.926;2023-04-03T13:27:50;17.67;43.12
66871;DHT22;53780;44.998;9.926;2023-04-03T13:30:58;17.67;44.34
66871;DHT22;53780;44.998;9.926;2023-04-03T13:34:19;17.71;44.52
66871;DHT22;53780;44.998;9.926;2023-04-03T13:37:31;17.33;43.99
66871;DHT22;53780;44.998;9.926;2023-04-03T13:40:57;17.05;44.29
66871;DHT22;53780;44.998;9.926;2023-04-03T13:47:38;17.23;44.75
66871;DHT22;53780;44.998;9.926;2023-04-03T13:51:03;17.08;45.10
66871;DHT22;53780;44.998;9.926;2023-04-03T13:54:21;17.32;44.99
66871;DHT22;53780;44.998;9.926;2023-04-03T13:57:27;17.16;44.70
66871;DHT22;53780;44.998;9.926;2023-04-03T14:03:52;16.99;44.59
66871;DHT22;53780;44.998;9.926;2023-04-03T14:06:57;17.02;45.17
66871;DHT22;53780;44.998;9.926;2023-04-03T14:10:03;16.80;45.13
66871;DHT22;53780;44.998;9.926;2023-04-03T14:13:19;16.85;45.43
66871;DHT22;53780;44.998;9.926;2023-04-03T14:16:25;16.81;45.90
66871;DHT22;53780;44.998;9.926;2023-04-03T14:19:33;16.85;44.84
66871;DHT22;53780;44.998;9.926;2023-04-03T14:22:37;16.70;45.76
66871;DHT22;53780;44.998;9.926;2023-04-03T14:25:41;16.85;45.86
66871;DHT22;53780;44.998;9.926;2023-04-03T14:28:48;16.78;47.19
66871;DHT22;53780;44.998;9.926;2023-04-03T14:31:52;16.98;48.00
66871;DHT22;53780;44.998;9.926;2023-04-03T14:34:56;16.94;46.86
66871;DHT22;53780;44.998;9.926;2023-04-03T14:38:01;17.16;48.25
66871;DHT22;53780;44.998;9.926;2023-04-03T14:41:05;16.91;49.64
66871;DHT22;53780;44.998;9.926;2023-04-03T14:44:09;16.67;50.77
66871;DHT22;53780;44.998;9.926;2023-04-03T14:47:14;16.44;51.30
66871;DHT22;53780;44.998;9.926;2023-04-03T14:50:24;16.49;51.44
66871;DHT22;53780;44.998;9.926;2023-04-03T14:53:28;16.88;50.99
66871;DHT22;53780;44.998;9.926;2023-04-03T14:56:33;17.20;50.19
66871;DHT22;53780;44.998;9.926;2023-04-03T14:59:37;17.45;48.73
66871;DHT22;53780;44.998;9.926;2023-04-03T15:02:41;17.08;49.62
66871;DHT22;53780;44.998;9.926;2023-04-03T15:05:47;17.35;49.55
66871;DHT22;53780;44.998;9.926;2023-04-03T15:08:51;17.02;49.83
66871;DHT22;53780;44.998;9.926;2023-04-03T15:11:55;16.80;50.23
66871;DHT22;53780;44.998;9.926;2023-04-03T15:14:58;16.61;50.30
66871;DHT22;53780;44.998;9.926;2023-04-03T15:18:03;16.22;51.13
66871;DHT22;53780;44.998;9.926;2023-04-03T15:21:08;15.98;51.78
66871;DHT22;53780;44.998;9.926;2023-04-03T15:24:12;16.02;51.03
66871;DHT22;53780;44.998;9.926;2023-04-03T15:27:16;16.15;50.42
66871;DHT22;53780;44.998;9.926;2023-04-03T15:30:20;16.23;49.80
66871;DHT22;53780;44.998;9.926;2023-04-03T15:33:25;16.36;49.11
66871;DHT22;53780;44.998;9.926;2023-04-03T15:36:29;16.26;49.46
66871;DHT22;53780;44.998;9.926;2023-04-03T15:39:33;16.30;49.67
66871;DHT22;53780;44.998;9.926;2023-04-03T15:42:37;16.16;50.62
66871;DHT22;53780;44.998;9.926;2023-04-03T15:45:41;16.15;49.38
66871;DHT22;53780;44.998;9.926;2023-04-03T15:48:46;15.96;48.97
66871;DHT22;53780;44.998;9.926;2023-04-03T15:51:50;15.91;49.22
66871;DHT22;53780;44.998;9.926;2023-04-03T15:54:54;15.88;49.10
66871;DHT22;53780;44.998;9.926;2023-04-03T15:57:58;15.78;48.01
66871;DHT22;53780;44.998;9.926;2023-04-03T16:01:02;15.67;45.02
66871;DHT22;53780;44.998;9.926;2023-04-03T16:04:08;15.67;44.16
66871;DHT22;53780;44.998;9.926;2023-04-03T16:07:12;15.61;44.05
66871;DHT22;53780;44.998;9.926;2023-04-03T16:10:17;15.72;44.36
66871;DHT22;53780;44.998;9.926;2023-04-03T16:13:21;15.70;44.43
66871;DHT22;53780;44.998;9.926;2023-04-03T16:16:25;15.58;43.99
66871;DHT22;53780;44.998;9.926;2023-04-03T16:19:30;15.67;43.16
66871;DHT22;53780;44.998;9.926;2023-04-03T16:22:34;15.54;42.80
66871;DHT22;53780;44.998;9.926;2023-04-03T16:25:39;15.53;40.94
66871;DHT22;53780;44.998;9.926;2023-04-03T16:28:43;15.43;40.59
66871;DHT22;53780;44.998;9.926;2023-04-03T16:31:47;15.43;40.65
66871;DHT22;53780;44.998;9.926;2023-04-03T16:34:52;15.44;40.97
66871;DHT22;53780;44.998;9.926;2023-04-03T16:37:56;15.46;40.62
66871;DHT22;53780;44.998;9.926;2023-04-03T16:41:00;15.32;41.22
66871;DHT22;53780;44.998;9.926;2023-04-03T16:44:08;15.27;41.33
66871;DHT22;53780;44.998;9.926;2023-04-03T16:47:12;15.12;41.91
66871;DHT22;53780;44.998;9.926;2023-04-03T16:50:17;15.00;42.28
66871;DHT22;53780;44.998;9.926;2023-04-03T16:53:22;14.78;43.21
66871;DHT22;53780;44.998;9.926;2023-04-03T16:56:27;14.72;43.40
66871;DHT22;53780;44.998;9.926;2023-04-03T16:59:31;14.65;43.25
66871;DHT22;53780;44.998;9.926;2023-04-03T17:02:35;14.45;43.52
66871;DHT22;53780;44.998;9.926;2023-04-03T17:05:39;14.31;43.95
66871;DHT22;53780;44.998;9.926;2023-04-03T17:08:45;14.19;44.32
66871;DHT22;53780;44.998;9.926;2023-04-03T17:12:03;14.13;44.68
66871;DHT22;53780;44.998;9.926;2023-04-03T17:15:08;14.05;44.83
66871;DHT22;53780;44.998;9.926;2023-04-03T17:18:13;13.96;45.34
66871;DHT22;53780;44.998;9.926;2023-04-03T17:21:17;13.79;46.24
66871;DHT22;53780;44.998;9.926;2023-04-03T17:24:21;13.74;46.17
66871;DHT22;53780;44.998;9.926;2023-04-03T17:27:25;13.64;46.07
66871;DHT22;53780;44.998;9.926;2023-04-03T17:30:30;13.45;46.75
66871;DHT22;53780;44.998;9.926;2023-04-03T17:33:34;13.37;46.79
66871;DHT22;53780;44.998;9.926;2023-04-03T17:36:39;13.27;46.80
66871;DHT22;53780;44.998;9.926;2023-04-03T17:39:43;13.10;46.79
66871;DHT22;53780;44.998;9.926;2023-04-03T17:42:49;13.02;47.11
66871;DHT22;53780;44.998;9.926;2023-04-03T17:45:59;12.88;47.47
66871;DHT22;53780;44.998;9.926;2023-04-03T17:49:06;12.80;47.43
66871;DHT22;53780;44.998;9.926;2023-04-03T17:52:10;12.78;47.39
66871;DHT22;53780;44.998;9.926;2023-04-03T17:55:14;12.62;47.38
66871;DHT22;53780;44.998;9.926;2023-04-03T17:58:20;12.59;47.55
66871;DHT22;53780;44.998;9.926;2023-04-03T18:01:27;12.35;48.22
66871;DHT22;53780;44.998;9.926;2023-04-03T18:04:31;12.33;48.41
66871;DHT22;53780;44.998;9.926;2023-04-03T18:07:38;12.23;48.76
66871;DHT22;53780;44.998;9.926;2023-04-03T18:10:42;12.21;49.05
66871;DHT22;53780;44.998;9.926;2023-04-03T18:13:46;12.08;49.14
66871;DHT22;53780;44.998;9.926;2023-04-03T18:16:50;12.03;49.42
66871;DHT22;53780;44.998;9.926;2023-04-03T18:19:54;11.94;49.66
66871;DHT22;53780;44.998;9.926;2023-04-03T18:22:58;11.66;50.20
66871;DHT22;53780;44.998;9.926;2023-04-03T18:26:03;11.80;49.95
66871;DHT22;53780;44.998;9.926;2023-04-03T18:29:08;11.76;49.84
66871;DHT22;53780;44.998;9.926;2023-04-03T18:32:15;11.77;49.93
66871;DHT22;53780;44.998;9.926;2023-04-03T18:35:20;11.72;50.19
66871;DHT22;53780;44.998;9.926;2023-04-03T18:38:23;11.68;50.35
66871;DHT22;53780;44.998;9.926;2023-04-03T18:41:30;11.57;50.61
66871;DHT22;53780;44.998;9.926;2023-04-03T18:44:36;11.59;50.53
66871;DHT22;53780;44.998;9.926;2023-04-03T18:47:40;11.65;50.46
66871;DHT22;53780;44.998;9.926;2023-04-03T18:50:44;11.57;50.43
66871;DHT22;53780;44.998;9.926;2023-04-03T18:53:49;11.52;50.55
66871;DHT22;53780;44.998;9.926;2023-04-03T18:56:53;11.59;50.52
66871;DHT22;53780;44.998;9.926;2023-04-03T18:59:57;11.55;50.62
66871;DHT22;53780;44.998;9.926;2023-04-03T19:03:01;11.61;50.50
66871;DHT22;53780;44.998;9.926;2023-04-03T19:06:05;11.79;51.55
66871;DHT22;53780;44.998;9.926;2023-04-03T19:09:10;12.21;49.38
66871;DHT22;53780;44.998;9.926;2023-04-03T19:12:14;12.40;48.74
66871;DHT22;53780;44.998;9.926;2023-04-03T19:15:20;12.46;48.25
66871;DHT22;53780;44.998;9.926;2023-04-03T19:18:25;12.72;47.77
66871;DHT22;53780;44.998;9.926;2023-04-03T19:21:28;12.85;47.55
66871;DHT22;53780;44.998;9.926;2023-04-03T19:24:34;12.93;47.28
66871;DHT22;53780;44.998;9.926;2023-04-03T19:27:39;12.97;47.23
66871;DHT22;53780;44.998;9.926;2023-04-03T19:30:44;12.59;47.88
66871;DHT22;53780;44.998;9.926;2023-04-03T19:33:51;12.44;48.09
66871;DHT22;53780;44.998;9.926;2023-04-03T19:36:55;12.24;48.84
66871;DHT22;53780;44.998;9.926;2023-04-03T19:39:59;12.28;49.02
66871;DHT22;53780;44.998;9.926;2023-04-03T19:43:03;12.52;48.35
66871;DHT22;53780;44.998;9.926;2023-04-03T19:46:08;12.78;47.93
66871;DHT22;53780;44.998;9.926;2023-04-03T19:49:12;12.79;48.37
66871;DHT22;53780;44.998;9.926;2023-04-03T19:52:17;12.80;48.21
66871;DHT22;53780;44.998;9.926;2023-04-03T19:55:21;12.88;48.29
66871;DHT22;53780;44.998;9.926;2023-04-03T19:58:27;12.83;48.52
66871;DHT22;53780;44.998;9.926;2023-04-03T20:01:32;12.83;48.20
66871;DHT22;53780;44.998;9.926;2023-04-03T20:04:37;12.75;48.45
66871;DHT22;53780;44.998;9.926;2023-04-03T20:07:41;12.76;48.51
66871;DHT22;53780;44.998;9.926;2023-04-03T20:10:45;12.75;48.28
66871;DHT22;53780;44.998;9.926;2023-04-03T20:13:50;12.61;48.35
66871;DHT22;53780;44.998;9.926;2023-04-03T20:16:54;12.40;48.87
66871;DHT22;53780;44.998;9.926;2023-04-03T20:20:00;12.49;48.84
66871;DHT22;53780;44.998;9.926;2023-04-03T20:23:04;12.48;48.80
66871;DHT22;53780;44.998;9.926;2023-04-03T20:26:08;12.44;48.54
66871;DHT22;53780;44.998;9.926;2023-04-03T20:29:13;12.14;49.26
66871;DHT22;53780;44.998;9.926;2023-04-03T20:32:17;12.04;49.62
66871;DHT22;53780;44.998;9.926;2023-04-03T20:35:21;11.97;49.74
66871;DHT22;53780;44.998;9.926;2023-04-03T20:38:25;12.12;49.18
66871;DHT22;53780;44.998;9.926;2023-04-03T20:41:28;12.24;48.65
66871;DHT22;53780;44.998;9.926;2023-04-03T20:44:34;12.24;47.98
66871;DHT22;53780;44.998;9.926;2023-04-03T20:47:38;12.31;47.61
66871;DHT22;53780;44.998;9.926;2023-04-03T20:50:43;12.01;48.11
66871;DHT22;53780;44.998;9.926;2023-04-03T20:53:49;12.10;47.93
66871;DHT22;53780;44.998;9.926;2023-04-03T20:56:53;12.14;47.70
66871;DHT22;53780;44.998;9.926;2023-04-03T20:59:57;12.10;47.84
66871;DHT22;53780;44.998;9.926;2023-04-03T21:03:01;12.16;47.88
66871;DHT22;53780;44.998;9.926;2023-04-03T21:20:13;12.10;48.78